Latest Coastal Weather Observations for Portland Airport

IDS60701

Issued at 5:21 am CST Saturday 29 April 2017 (issued every 10 minutes, with the page automatically refreshed every 10 minutes)

About coastal observations | Map of coastal stations | Coastal observations for SA | Marine services | Other Formats
Station Details ID: 090171 Name: CASHMORE AIRPORT Lat: -38.31 Lon: 141.47 Height: 80.9 m
Data from the previous 72 hours. | See also: Recent months at Portland Airport
Date/Time
CST
Temp
°C
Wind Pressure Rain since
9am
mm
Weather Cloud Vis
km
Sea
Height
m
Swell
Dir  Spd
kts
Gust
kts
hPa Trend Height
m
Period
s
Dir
29/05:14am 13.7 WSW 10 14 1022.4 - 2.4 - Partly cloudy 10 - - - -
29/05:00am 14.1 W 13 19 1022.3 - 2.4 - Partly cloudy 6 - - - -
29/04:58am 14.1 W 12 19 1022.3 - 2.4 - Partly cloudy 6 - - - -
29/04:30am 14.2 W 10 14 1022.1 - 2.4 - Cloudy 10 - - - -
29/04:00am 14.1 WSW 13 17 1022.0 - 2.4 - Partly cloudy 10 - - - -
29/03:49am 14.1 WSW 13 18 1022.0 - 2.4 - Partly cloudy 10 - - - -
29/03:30am 14.2 W 11 16 1022.1 - 2.4 - Partly cloudy 10 - - - -
29/03:00am 14.4 W 11 14 1022.1 - 2.4 - Partly cloudy 10 - - - -
29/02:52am 14.3 W 12 15 1022.1 - 2.4 - Partly cloudy 10 - - - -
29/02:39am 14.1 WSW 14 21 1022.2 - 2.4 - Partly cloudy 6 - - - -
29/02:30am 14.4 W 11 14 1022.2 - 2.4 Recent precip. Cloudy 10 - - - -
29/02:21am 14.5 W 11 16 1022.1 - 2.4 - Partly cloudy 10 - - - -
29/02:20am 14.5 W 11 16 1022.1 - 2.4 - Partly cloudy 10 - - - -
29/02:04am 14.3 W 11 14 1022.3 - 2.4 - Partly cloudy 10 - - - -
29/02:00am 14.2 W 11 15 1022.3 - 2.4 - Partly cloudy 10 - - - -
29/01:56am 14.2 W 12 16 1022.3 - 2.4 - Partly cloudy 10 - - - -
29/01:30am 14.3 W 10 14 1022.4 - 2.2 - Partly cloudy 10 - - - -
29/01:22am 14.1 W 12 16 1022.4 - 2.2 - Partly cloudy 10 - - - -
29/01:02am 14.3 W 15 22 1022.6 - 2.2 - Partly cloudy 5 - - - -
29/01:00am 14.4 W 15 22 1022.6 - 2.2 - Partly cloudy 8 - - - -
29/12:30am 14.5 W 11 17 1022.7 - 2.2 - Partly cloudy 10 - - - -
29/12:00am 14.4 W 11 17 1022.7 - 2.0 - Partly cloudy 10 - - - -
 
Date/Time
CST
Temp
°C
Wind Pressure Rain since
9am
mm
Weather Cloud Vis
km
Sea
Height
m
Swell
Dir  Spd
kts
Gust
kts
hPa Trend Height
m
Period
s
Dir
28/11:54pm 14.3 W 10 13 1022.7 - 2.0 - Partly cloudy 10 - - - -
28/11:30pm 14.2 W 11 15 1022.9 - 2.0 - Cloudy 10 - - - -
28/11:15pm 14.2 W 12 17 1023.0 - 2.0 - Partly cloudy 10 - - - -
28/11:00pm 14.2 W 13 21 1023.1 - 2.0 - Partly cloudy 6 - - - -
28/10:59pm 14.2 W 13 21 1023.1 - 2.0 - Partly cloudy 6 - - - -
28/10:32pm 14.1 W 12 16 1023.0 - 2.0 - Partly cloudy 10 - - - -
28/10:30pm 14.1 W 11 16 1023.1 - 2.0 - Partly cloudy 10 - - - -
28/10:13pm 14.2 W 13 19 1023.1 - 1.8 - Partly cloudy 6 - - - -
28/10:00pm 14.3 WNW 11 17 1023.0 - 1.8 - Partly cloudy 10 - - - -
28/09:46pm 14.2 W 11 15 1023.3 - 1.8 - Partly cloudy 10 - - - -
28/09:41pm 14.0 W 11 15 1023.3 - 1.8 - Partly cloudy 10 - - - -
28/09:30pm 14.0 W 14 22 1023.3 - 1.8 - Partly cloudy 7 - - - -
28/09:26pm 14.1 W 13 22 1023.2 - 1.8 - Partly cloudy 7 - - - -
28/09:19pm 14.2 W 12 18 1023.2 - 1.8 - Partly cloudy 10 - - - -
28/09:09pm 14.2 W 13 20 1023.3 - 1.8 - Partly cloudy 6 - - - -
28/09:00pm 14.2 W 12 16 1023.2 - 1.8 - Partly cloudy 10 - - - -
28/08:41pm 14.0 W 14 21 1023.2 - 1.8 - Partly cloudy 10 - - - -
28/08:30pm 14.2 W 15 23 1023.2 - 1.8 Rain Cloudy 5 - - - -
28/08:28pm 14.1 W 15 23 1023.2 - 1.8 - Partly cloudy 4 - - - -
28/08:15pm 13.9 W 16 20 1023.2 - 1.6 - Partly cloudy 5 - - - -
28/08:11pm 14.0 W 16 21 1023.1 - 1.6 - Partly cloudy 6 - - - -
28/08:09pm 14.1 W 15 21 1023.2 - 1.6 - Partly cloudy 8 - - - -
28/08:00pm 14.2 W 14 20 1023.3 - 1.6 - Partly cloudy 8 - - - -
28/07:52pm 14.5 W 15 21 1023.3 - 1.6 - Partly cloudy 3 - - - -
28/07:46pm 14.5 W 17 22 1023.4 - 1.4 - Partly cloudy 6 - - - -
28/07:30pm 14.5 W 14 20 1023.3 - 1.2 - Partly cloudy 10 - - - -
28/07:16pm 14.6 W 14 18 1023.2 - 1.2 - Partly cloudy 10 - - - -
28/07:00pm 14.4 W 14 20 1023.3 - 1.2 - Partly cloudy 10 - - - -
28/06:53pm 14.6 W 13 16 1023.3 - 1.2 - Partly cloudy 10 - - - -
28/06:37pm 14.6 W 13 18 1023.3 - 1.2 - Partly cloudy 10 - - - -
28/06:30pm 14.5 W 14 19 1023.3 - 1.2 - Partly cloudy 10 - - - -
28/06:00pm 14.6 W 13 16 1023.1 - 1.2 - Partly cloudy 10 - - - -
28/05:40pm 14.4 W 13 17 1023.1 - 1.2 - Partly cloudy 10 - - - -
28/05:30pm 14.3 W 14 19 1023.1 - 1.2 Recent precip. Cloudy 6 - - - -
28/05:14pm 14.5 W 14 23 1022.9 - 1.2 - Partly cloudy 4 - - - -
28/05:11pm 14.6 WNW 13 18 1022.9 - 1.2 - Partly cloudy 6 - - - -
28/05:00pm 14.5 WNW 13 18 1022.9 - 1.0 - Partly cloudy 10 - - - -
28/04:56pm 14.4 W 13 18 1022.9 - 1.0 - Partly cloudy 10 - - - -
28/04:30pm 14.8 W 13 18 1022.9 - 1.0 - Partly cloudy 10 - - - -
28/04:00pm 14.6 W 15 22 1022.9 - 1.0 - Partly cloudy 7 - - - -
28/03:52pm 14.8 W 15 25 1022.9 - 1.0 - Partly cloudy 10 - - - -
28/03:33pm 15.0 WNW 13 19 1022.9 - 1.0 - Partly cloudy 10 - - - -
28/03:30pm 15.0 WNW 13 18 1022.9 - 1.0 - Partly cloudy 10 - - - -
28/03:12pm 14.9 W 16 21 1023.0 - 1.0 - Partly cloudy 6 - - - -
28/03:00pm 15.2 W 14 21 1023.0 - 1.0 - Partly cloudy 10 - - - -
28/02:30pm 15.2 W 15 22 1023.0 - 1.0 - Cloudy 10 - - - -
28/02:00pm 15.1 W 14 20 1023.0 - 1.0 - Partly cloudy 10 - - - -
28/01:58pm 15.3 W 13 19 1023.0 - 1.0 - Partly cloudy 10 - - - -
28/01:56pm 15.1 W 12 19 1023.0 - 1.0 - Partly cloudy 10 - - - -
28/01:53pm 15.2 W 12 15 1023.0 - 1.0 - Partly cloudy 10 - - - -
28/01:37pm 14.7 W 17 25 1023.1 - 1.0 - Partly cloudy 6 - - - -
28/01:34pm 15.0 W 15 25 1023.0 - 1.0 - Partly cloudy 10 - - - -
28/01:30pm 15.1 W 14 19 1023.1 - 1.0 - Partly cloudy 10 - - - -
28/01:28pm 15.1 W 14 19 1023.2 - 1.0 - Partly cloudy 10 - - - -
28/01:09pm 14.8 W 15 21 1023.2 - 0.8 - Partly cloudy 6 - - - -
28/01:00pm 15.2 W 15 21 1023.2 - 0.4 - Partly cloudy 10 - - - -
28/12:57pm 15.2 W 15 21 1023.2 - 0.4 - Partly cloudy 10 - - - -
28/12:31pm 15.4 W 15 23 1023.4 - 0.4 - Partly cloudy 6 - - - -
28/12:30pm 15.5 W 15 19 1023.5 - 0.4 - Partly cloudy 7 - - - -
28/12:17pm 15.6 W 15 19 1023.6 - 0.4 - Partly cloudy 10 - - - -
28/12:09pm 15.5 W 14 18 1023.7 - 0.4 - Partly cloudy 10 - - - -
28/12:00pm 15.3 W 15 23 1023.9 - 0.4 - Partly cloudy 10 - - - -
28/11:52am 15.7 W 14 19 1024.1 - 0.4 - Partly cloudy 10 - - - -
28/11:49am 15.6 W 14 19 1024.1 - 0.4 - Partly cloudy 10 - - - -
28/11:33am 15.3 W 14 19 1024.2 - 0.4 - Partly cloudy 10 - - - -
28/11:30am 15.4 W 13 17 1024.3 - 0.4 - Cloudy 10 - - - -
28/11:14am 15.1 W 13 22 1024.3 - 0.4 - Partly cloudy 6 - - - -
28/11:13am 15.1 W 13 20 1024.4 - 0.4 - Partly cloudy 8 - - - -
28/11:07am 15.5 W 12 18 1024.4 - 0.4 - Partly cloudy 10 - - - -
28/11:00am 15.1 W 13 19 1024.4 - 0.4 - Partly cloudy 10 - - - -
28/10:56am 15.2 W 13 19 1024.4 - 0.4 - Partly cloudy 10 - - - -
28/10:55am 15.4 W 13 18 1024.4 - 0.4 - Partly cloudy 10 - - - -
28/10:54am 15.3 W 13 18 1024.4 - 0.4 - Partly cloudy 10 - - - -
28/10:38am 15.1 W 15 19 1024.4 - 0.4 - Partly cloudy 6 - - - -
28/10:30am 15.3 W 15 20 1024.4 - 0.4 - Partly cloudy 10 - - - -
28/10:00am 15.7 W 15 19 1024.4 - 0.4 - Partly cloudy 10 - - - -
28/09:30am 15.4 W 14 19 1024.4 - 0.4 - Partly cloudy 10 - - - -
28/09:00am 14.6 W 15 19 1024.3 - 0.4 - Partly cloudy 10 - - - -
28/08:53am 14.5 W 13 19 1024.2 - 0.4 - Partly cloudy 10 - - - -
28/08:36am 14.7 WSW 13 19 1024.1 - 0.2 - Partly cloudy 6 - - - -
28/08:33am 14.8 WSW 13 19 1024.1 - 0.2 - Partly cloudy 10 - - - -
28/08:30am 14.8 WSW 13 19 1024.1 - 4.6 Recent precip. Cloudy 10 - - - -
28/08:00am 14.2 W 11 18 1023.9 - 4.6 - Cloudy 3 - - - -
28/07:30am 14.1 WSW 11 16 1023.5 - 4.4 - Partly cloudy 2 - - - -
28/07:14am 14.1 WSW 10 14 1023.4 - 4.2 - Partly cloudy 6 - - - -
28/07:00am 14.0 W 10 12 1023.2 - 4.2 - Partly cloudy 10 - - - -
28/06:59am 14.0 W 10 12 1023.2 - 4.2 - Partly cloudy 10 - - - -
28/06:46am 13.9 W 11 16 1023.2 - 4.2 - Partly cloudy 6 - - - -
28/06:45am 13.9 W 11 16 1023.2 - 4.2 - Partly cloudy 6 - - - -
28/06:42am 13.9 W 11 16 1023.1 - 4.2 - Partly cloudy 9 - - - -
28/06:30am 13.7 WSW 13 18 1023.2 - 4.2 - Partly cloudy 10 - - - -
28/06:26am 13.8 WSW 13 18 1023.2 - 4.2 - Partly cloudy 10 - - - -
28/06:25am 13.7 WSW 12 18 1023.2 - 4.2 - Partly cloudy 10 - - - -
28/06:08am 13.7 WSW 13 18 1023.2 - 4.2 - Partly cloudy 10 - - - -
28/06:00am 14.0 W 11 16 1023.1 - 4.2 - Partly cloudy 10 - - - -
28/05:30am 13.9 WSW 12 21 1022.9 - 4.0 Rain Cloudy 4 - - - -
28/05:16am 14.1 W 11 15 1022.9 - 3.8 - Partly cloudy 6 - - - -
28/05:12am 14.2 W 11 15 1022.9 - 3.8 - Partly cloudy 10 - - - -
28/05:00am 14.0 W 12 18 1022.8 - 3.8 - Partly cloudy 5 - - - -
28/04:43am 14.1 W 10 16 1022.7 - 3.8 - Partly cloudy 6 - - - -
28/04:32am 13.9 W 9 12 1022.5 - 3.6 - Partly cloudy 10 - - - -
28/04:30am 13.9 W 10 13 1022.5 - 3.6 - Partly cloudy 10 - - - -
28/04:12am 13.8 W 13 20 1022.5 - 3.6 - Partly cloudy 6 - - - -
28/04:00am 13.9 WSW 11 14 1022.4 - 3.6 - Partly cloudy 10 - - - -
28/03:30am 14.1 W 9 12 1022.5 - 3.6 - Partly cloudy 10 - - - -
28/03:22am 14.0 W 10 15 1022.5 - 3.4 - Partly cloudy 10 - - - -
28/03:00am 13.7 W 11 14 1022.6 - 3.2 - Partly cloudy 3 - - - -
28/02:40am 13.9 WNW 11 15 1022.6 - 3.2 - Partly cloudy 6 - - - -
28/02:38am 14.0 WNW 11 15 1022.6 - 3.2 - Partly cloudy 9 - - - -
28/02:30am 14.2 W 10 15 1022.6 - 3.2 Recent precip. Cloudy 8 - - - -
28/02:21am 14.3 W 10 14 1022.7 - 3.2 - Partly cloudy 6 - - - -
28/02:00am 13.4 WNW 9 12 1022.8 - 3.0 - Partly cloudy 10 - - - -
28/01:44am 13.3 WNW 9 13 1022.9 - 3.0 - Partly cloudy 10 - - - -
28/01:33am 13.1 WNW 9 14 1022.9 - 3.0 - Partly cloudy 6 - - - -
28/01:31am 13.1 WNW 9 14 1023.0 - 3.0 - Partly cloudy 6 - - - -
28/01:30am 13.1 WNW 10 14 1023.0 - 3.0 - Partly cloudy 7 - - - -
28/01:00am 12.9 NW 9 13 1022.9 - 3.0 - Partly cloudy 10 - - - -
28/12:30am 13.1 WNW 9 12 1023.0 - 3.0 - Partly cloudy 10 - - - -
28/12:00am 13.3 NW 9 11 1023.1 - 3.0 - Partly cloudy 10 - - - -
 
Date/Time
CST
Temp
°C
Wind Pressure Rain since
9am
mm
Weather Cloud Vis
km
Sea
Height
m
Swell
Dir  Spd
kts
Gust
kts
hPa Trend Height
m
Period
s
Dir
27/11:53pm 13.3 NW 8 11 1023.1 - 3.0 - Partly cloudy 10 - - - -
27/11:30pm 13.4 WNW 8 12 1023.2 - 3.0 - Cloudy 10 - - - -
27/11:21pm 13.5 WNW 8 11 1023.2 - 3.0 - Partly cloudy 10 - - - -
27/11:00pm 13.8 WNW 9 11 1023.4 - 3.0 - Cloudy 10 - - - -
27/10:30pm 13.8 W 9 13 1023.5 - 3.0 - Partly cloudy 10 - - - -
27/10:00pm 13.6 W 10 14 1023.6 - 3.0 - Partly cloudy 10 - - - -
27/09:30pm 13.3 W 9 12 1023.4 - 3.0 - Partly cloudy 10 - - - -
27/09:00pm 12.9 W 7 9 1023.6 - 3.0 - Partly cloudy 10 - - - -
27/08:30pm 13.0 W 12 17 1023.5 - 2.8 Rain Cloudy 8 - - - -
27/08:00pm 13.1 W 9 11 1023.6 - 2.6 - Partly cloudy 10 - - - -
27/07:30pm 13.0 W 7 9 1023.6 - 2.6 - Partly cloudy 10 - - - -
27/07:00pm 12.8 W 9 13 1023.5 - 2.6 - Partly cloudy 10 - - - -
27/06:30pm 12.5 WNW 9 11 1023.5 - 2.6 - Partly cloudy 10 - - - -
27/06:00pm 12.5 W 11 16 1023.3 - 2.6 - Partly cloudy 10 - - - -
27/05:43pm 12.4 W 10 15 1023.3 - 2.6 - Partly cloudy 10 - - - -
27/05:30pm 12.5 W 9 15 1023.2 - 2.4 Rain Cloudy 5 - - - -
27/05:26pm 12.5 W 9 12 1023.3 - 2.4 - Partly cloudy 6 - - - -
27/05:19pm 12.5 W 10 14 1023.2 - 1.8 - Partly cloudy 10 - - - -
27/05:01pm 12.7 W 13 19 1023.1 - 1.8 - Partly cloudy 6 - - - -
27/05:00pm 12.7 W 12 19 1023.1 - 1.6 - Partly cloudy 8 - - - -
27/04:30pm 12.7 WNW 10 14 1023.1 - 1.4 - Partly cloudy 10 - - - -
27/04:00pm 12.8 WNW 10 14 1023.4 - 1.4 - Partly cloudy 10 - - - -
27/03:49pm 12.7 WNW 10 13 1023.3 - 1.4 - Partly cloudy 10 - - - -
27/03:33pm 12.5 W 8 12 1023.6 - 1.4 - Partly cloudy 6 - - - -
27/03:30pm 12.6 W 8 12 1023.5 - 0.6 - Partly cloudy 10 - - - -
27/03:26pm 12.5 W 7 10 1023.5 - 0.2 - Partly cloudy 10 - - - -
27/03:09pm 12.4 WSW 14 20 1023.8 - 0.2 - Partly cloudy 6 - - - -
27/03:00pm 12.6 WSW 8 18 1023.8 - 0.2 - Partly cloudy 10 - - - -
27/02:30pm 13.6 W 11 14 1023.8 - 0.0 - Mostly cloudy 10 - - - -
27/02:00pm 13.5 W 12 15 1024.0 - 0.0 - Partly cloudy 10 - - - -
27/01:34pm 12.6 W 10 13 1024.2 - 0.0 - Partly cloudy 10 - - - -
27/01:30pm 12.7 W 10 14 1024.2 - 0.0 - Partly cloudy 10 - - - -
27/01:16pm 12.5 W 11 16 1024.4 - 0.0 - Partly cloudy 6 - - - -
27/01:00pm 14.0 W 12 18 1024.3 - 0.0 - Partly cloudy 10 - - - -
27/12:30pm 14.4 W 13 16 1024.5 - 0.0 - Partly cloudy 10 - - - -
27/12:00pm 13.8 W 12 15 1024.8 - 0.0 - Partly cloudy 10 - - - -
27/11:30am 14.9 WSW 11 15 1024.9 - 0.0 - Mostly cloudy 10 - - - -
27/11:00am 13.6 W 12 16 1025.1 - 0.0 - Partly cloudy 10 - - - -
27/10:30am 14.5 W 11 15 1025.2 - 0.0 - Partly cloudy 10 - - - -
27/10:00am 14.0 W 12 16 1025.0 - 0.0 - Partly cloudy 10 - - - -
27/09:30am 13.7 WSW 10 14 1024.8 - 0.0 - Partly cloudy 10 - - - -
27/09:00am 13.5 WSW 8 11 1025.0 - 0.0 - Partly cloudy 10 - - - -
27/08:30am 12.8 WSW 7 11 1025.1 - 1.0 - Mostly clear 10 - - - -
27/08:00am 12.0 WSW 7 10 1024.9 - 1.0 - Partly cloudy 10 - - - -
27/07:30am 9.9 WSW 5 6 1024.8 - 1.0 - Partly cloudy 10 - - - -
27/07:00am 8.9 WSW 5 7 1024.5 - 1.0 - Partly cloudy 10 - - - -
27/06:30am 9.1 W 3 4 1024.2 - 1.0 - Partly cloudy 10 - - - -
27/06:00am 9.9 SW 6 7 1024.1 - 1.0 - Partly cloudy 10 - - - -
27/05:30am 9.4 SW 6 8 1024.1 - 1.0 - Mostly cloudy 10 - - - -
27/05:00am 8.9 WSW 7 8 1023.9 - 1.0 - Partly cloudy 10 - - - -
27/04:30am 9.9 WSW 6 9 1023.6 - 1.0 - Partly cloudy 10 - - - -
27/04:00am 10.1 SW 5 7 1023.1 - 1.0 - Partly cloudy 10 - - - -
27/03:30am 10.2 SW 6 10 1023.1 - 1.0 - Partly cloudy 10 - - - -
27/03:00am 10.1 SW 6 9 1023.2 - 1.0 - Partly cloudy 10 - - - -
27/02:30am 10.2 SW 5 6 1023.3 - 1.0 - Mostly clear 10 - - - -
27/02:00am 10.7 SW 6 9 1023.3 - 1.0 - Partly cloudy 10 - - - -
27/01:30am 10.9 SSW 7 12 1023.3 - 1.0 - Partly cloudy 10 - - - -
27/01:00am 11.1 S 7 11 1023.2 - 1.0 - Partly cloudy 10 - - - -
27/12:30am 11.0 SSW 6 9 1023.2 - 1.0 - Partly cloudy 10 - - - -
27/12:00am 10.7 SSW 7 12 1023.0 - 1.0 - Partly cloudy 10 - - - -
 
Date/Time
CST
Temp
°C
Wind Pressure Rain since
9am
mm
Weather Cloud Vis
km
Sea
Height
m
Swell
Dir  Spd
kts
Gust
kts
hPa Trend Height
m
Period
s
Dir
26/11:30pm 10.8 S 8 12 1023.1 - 1.0 - Mostly clear 10 - - - -
26/11:00pm 11.0 SSW 7 12 1022.9 - 1.0 - Partly cloudy 10 - - - -
26/10:30pm 11.0 SSW 7 12 1022.9 - 1.0 - Partly cloudy 10 - - - -
26/10:00pm 10.8 SSW 8 12 1022.8 - 1.0 - Partly cloudy 10 - - - -
26/09:30pm 10.8 SSW 9 14 1022.6 - 1.0 - Partly cloudy 10 - - - -
26/09:00pm 10.8 SSW 9 15 1022.4 - 1.0 - - 10 - - - -
26/08:30pm 10.9 SSW 9 14 1022.2 - 1.0 - Mostly cloudy 10 - - - -
26/08:00pm 11.2 SSW 10 18 1021.8 - 1.0 - Partly cloudy 10 - - - -
26/07:30pm 10.8 SSW 9 15 1021.7 - 1.0 - Partly cloudy 10 - - - -
26/07:00pm 10.9 SSW 10 18 1021.5 - 1.0 - Partly cloudy 10 - - - -
26/06:30pm 10.6 S 9 15 1021.2 - 1.0 - Partly cloudy 10 - - - -
26/06:00pm 10.6 SSW 9 15 1020.9 - 1.0 - Partly cloudy 10 - - - -
26/05:30pm 10.7 SSW 10 17 1020.6 - 1.0 - Partly cloudy 10 - - - -
26/05:00pm 10.7 SSW 9 13 1020.2 - 1.0 - Partly cloudy 10 - - - -
26/04:30pm 11.2 SW 11 18 1019.9 - 1.0 - Partly cloudy 10 - - - -
26/04:00pm 11.7 SW 9 15 1019.5 - 1.0 - Partly cloudy 10 - - - -
26/03:30pm 11.7 SW 13 20 1019.3 - 1.0 - Partly cloudy 10 - - - -
26/03:00pm 11.0 SW 10 18 1019.1 - 1.0 - Partly cloudy 10 - - - -
26/02:30pm 10.2 SW 12 18 1019.1 - 0.8 - Partly cloudy 10 - - - -
26/02:00pm 8.9 SW 13 20 1018.8 - 0.8 - Partly cloudy 10 - - - -
26/01:30pm 11.3 SW 13 19 1018.8 - 0.8 - Partly cloudy 10 - - - -
26/01:00pm 11.1 SW 15 20 1018.7 - 0.8 - Partly cloudy 10 - - - -
26/12:30pm 9.7 SSW 10 20 1018.7 - 0.6 - Partly cloudy 8 - - - -
26/12:00pm 12.0 SSW 11 17 1018.4 - 0.0 - Partly cloudy 10 - - - -
26/11:30am 11.9 SSW 11 19 1018.6 - 0.0 - Mostly clear 10 - - - -
26/11:00am 11.4 SSW 12 19 1018.4 - 0.0 - Partly cloudy 10 - - - -
26/10:30am 12.0 SSW 14 24 1017.8 - 0.0 - Partly cloudy 10 - - - -
26/10:00am 11.9 SSW 8 13 1017.3 - 0.0 - Partly cloudy 10 - - - -
26/09:30am 11.4 S 15 26 1017.0 - 0.0 - Partly cloudy 10 - - - -
26/09:28am 11.4 SSW 15 26 1016.9 - 0.0 - Partly cloudy 10 - - - -
26/09:00am 10.9 SSW 14 20 1016.2 - 0.0 - Partly cloudy 10 - - - -
26/08:30am 11.4 SSW 13 21 1015.6 - 12.0 - Cloudy 10 - - - -
26/08:01am 10.8 S 15 26 1015.2 - 12.0 - Partly cloudy 10 - - - -
26/08:00am 11.0 S 15 22 1015.1 - 12.0 - Partly cloudy 10 - - - -
26/07:30am 10.2 S 10 16 1014.6 - 12.0 - Partly cloudy 10 - - - -
26/07:00am 9.6 S 11 21 1013.9 - 12.0 - Partly cloudy 10 - - - -
26/06:30am 10.0 S 14 23 1013.2 - 12.0 - Partly cloudy 10 - - - -
26/06:14am 10.3 S 15 28 1012.7 - 12.0 - Partly cloudy 10 - - - -
26/06:00am 10.5 S 15 22 1012.3 - 12.0 - Partly cloudy 10 - - - -
26/05:30am 10.9 SSW 13 24 1011.8 - 12.0 - Partly cloudy 10 - - - -
26/05:00am 10.6 S 12 21 1011.1 - 12.0 - Partly cloudy 10 - - - -

Other Formats:

Comma delimited format used in spreadsheet applications
http://www.bom.gov.au/fwo/IDS60701/IDS60701.94828.axf

JavaScript Object Notation format (JSON) in row-major order
http://www.bom.gov.au/fwo/IDS60701/IDS60701.94828.json